Sheridan, Nevada
Current Conditions -  °F | °C
As of 11:55 AM on Saturday 20 Dec 2014 (Local Time) from KMEV Reporting Station
Overcast Overcast  
Wind Chill: 45°   Ceiling: 6000
Heat Index: 48°   Visibility: 10mi
Dew Point: 36°   Wind: 8mph
Humidity: 62%   Direction: 270°W
Pressure: 30.1"   Gusts: NA
Location:  38.9417°N, 119.681°W
Report Text: KMEV 201955Z AUTO 27007KT 10SM OVC060 09/02 A3010 RMK AO2
Loading
Personal Weather Stations






























Interactive Weather Map New forecast layout! Learn more

10-Day Weather Forecast

Advertisements
Track Severe Weather on mobile